Friday, May 25, 2018, 12:32 PM GMT
Back to Local

CWQH, Lennoxville

Location: , , Canada Lat: 45.367
Local Time: 12:32 PM GMT (12:32 GMT) Lon: -71.817
Time Zone: GMT Elev: 593 ft

Show me the last for .
Show Coded

Time T Td Feel RH Dir Speed Gust Alt SLP Vis Weather Sky Remarks
2018-05-25 12:00 69 49 - 48 240° 13 26 - - 0 Peak wind: 26 mph (23 kts) from 230° at 57 min
2018-05-25 11:00 68 47 - 48 240° 14 21 - - 0 Peak wind: 20 mph (18 kts) from 240° at 54 min
2018-05-25 10:00 62 46 - 55 160° 5 - - - 0 None
2018-05-25 09:00 59 46 - 60 150° 5 - - - 0 None
2018-05-25 08:00 60 44 - 53 160° 5 - - - 0 None
2018-05-25 07:00 58 42 - 54 150° 7 - - - 0 None
2018-05-25 06:00 57 39 - 50 160° 6 - - - 0 None
2018-05-25 05:00 52 40 - 62 160° 5 - - - 0 None
2018-05-25 04:00 52 40 - 62 150° 2 - - - 0 None
2018-05-25 03:00 55 39 - 54 200° 3 - - - 0 None
2018-05-25 02:00 55 38 - 52 190° 2 - - - 0 None
2018-05-25 01:00 61 37 - 40 190° 7 - - - 0 None
2018-05-25 00:00 63 37 - 37 190° 6 - - - 0 None
2018-05-24 23:00 64 35 - 34 230° 5 - - - 0 None
2018-05-24 22:00 65 31 - 27 250° 5 - - - 0 None
2018-05-24 21:00 66 32 - 27 280° 7 - - - 0 None
2018-05-24 20:00 64 31 - 28 250° 10 - - - 0 None
2018-05-24 19:00 65 35 - 32 310° 12 18 - - 0 Peak wind: 19 mph (17 kts) from 260° at 23 min
2018-05-24 18:00 64 31 - 28 280° 10 - - - 0 Peak wind: 19 mph (17 kts) from 270° at 34 min
2018-05-24 17:00 63 30 - 28 250° 9 - - - 0 None
2018-05-24 16:00 60 31 - 32 320° 7 - - - 0 None
2018-05-24 15:00 59 31 - 34 300° 5 - - - 0 None
2018-05-24 14:00 56 34 - 43 320° 8 - - - 0 None
2018-05-24 13:00 54 38 - 55 320° 8 - - - 0 None

Support USWX by starting your Amazon purchase here.